map of YQY home
YQY - Airport
Location
City:  Sydney, Nova Scotia, Canada
Name:J.A. Douglas McCurdy Airport
ICAO:CYQY
IATA:YQY

Details
Type:Airport (Airfield)
Use:Public/Civil
Latitude:4609'41"N (46.161389)
Longitude:6002'53"W (-60.048055)
Elevation:203 ft (62 m)
Variation:17.95W (WMM2015 magnetic declination)
0.15 annual change
Runways:2
Longest:7070 ft (2155 m), paved

Time
Time Zone:UTC-4 (DST-3)
Local Time:

Weather
METAR:CYQY 180400Z 24007KT 15SM FEW025 M15/M17 A3030 RMK CU2 SLP269
TAF:CYQY 172342Z 1800/1812 25008KT P6SM SCT020
TEMPO 1800/1802 6SM -SN BKN020
FM181000 25008KT P6SM BKN150
RMK NXT FCST BY 180600Z

Related Locations
Nearby:
Farthest:ALH: 11648 mi / 18746 km
Albany, WA, AU

Find:

   beyond  
but within

Other Information
Maps:
NOTAMs:
Links:
Sources:

  
  • flag of Canada
  • flag of Nova Scotia
  

Airport Diagram

Airport diagram for YQY

Airport diagram PDF

Sectional Chart

Flight Planning
at skyvector.com

Satellite Image

Google Maps Satellite view

 

Copyright © 2004-2019 Karl L. Swartz. All rights reserved.
The Great Circle Mapper name and logo are trademarks of the Great Circle Mapper.
All other trademarks mentioned herein belong to their respective owners.
Please see credits for attibutions and further copyright information.

  Follow gcmap on Facebook Follow gcmap on Twitter Follow gcmap on Google+ GCmap on LinkedIn

hCard Microformat

Geo Microformat